Portada
METAR-TAF:

METAR-TAF

Aeropuertos :

Curazao, Antillas Neerlandesas

Aeropuerto Internacional Hato

latitud: 12-12N, longitud: 068-58W, altitud: 9 m

Observación

El informe se hizo hace 24 minutos, a las 01:00 UTC
Viento 12 kt del este-sureste
Temperatura 27°C
Humedad 74%
Presión 1013 hPa
Visibilidad 10 km o más
Escasas nubes a una altura de 1900 ft

METAR: TNCC 240100Z 11012KT 9999 FEW019 27/22 Q1013 NOSIG

Hora: 21:24 (01:24 UTC)

Pronóstico

Pronóstico válido del 23 a las 22 UTC al 24 a las 00 UTC
Viento 13 kt del este
Visibilidad 10 km o más
Nubes dispersas a una altura de 2000 ft

TAF: TNCC 232200 2400/2424 10013KT 9999 SCT020

Observaciones y pronósticos meteorológicos de más de 4000 aeropuertos (mensajes METAR y TAF).

Los puntos amarillos y rojos representan las estaciones disponibles.

Ponga el ratón en el punto deseado para ver el nombre de la estación.

Haga clic para ver las observaciones y los pronósticos meteorológicos.

Para cambiar el mapa : haga clic en los botones verdes con una cruz de color negro para hacer un zoom, en el botón verde con un guión para alejar o en las flechas verdes para mapas adyacentes.


METAR-TAF: